Time;durP1;ratioP1;P1;durP2;ratioP2;P2;SDS_P1;SDS_P2;PMS_P1;PMS_P2;Temp;Humidity;BMP_temperature;BMP_pressure;BME280_temperature;BME280_humidity;BME280_pressure;Samples;Min_cycle;Max_cycle;Signal;HPM_P1;HPM_P2
2024/03/12 00:01:40;;;;;;;21.10;15.70;;;;;;;5.55;87.88;99656.27;103463;1254;138196;-79
2024/03/12 00:04:08;;;;;;;19.10;15.80;;;;;;;5.54;88.09;99650.44;103482;1254;106806;-79
2024/03/12 00:06:36;;;;;;;19.00;16.10;;;;;;;5.51;87.59;99649.45;103451;1254;138121;-79
2024/03/12 00:09:06;;;;;;;18.00;14.90;;;;;;;5.53;87.87;99655.29;103484;1251;108508;-78
2024/03/12 00:11:33;;;;;;;20.90;16.30;;;;;;;5.53;87.80;99652.36;103655;1254;96465;-79
2024/03/12 00:14:02;;;;;;;18.80;15.00;;;;;;;5.53;87.73;99647.52;104836;1250;110636;-80
2024/03/12 00:16:29;;;;;;;20.50;15.40;;;;;;;5.52;87.85;99646.86;103667;1254;106603;-79
2024/03/12 00:19:00;;;;;;;19.80;16.00;;;;;;;5.52;87.92;99640.99;103403;1256;138240;-78
2024/03/12 00:21:28;;;;;;;21.10;16.50;;;;;;;5.51;88.12;99645.14;103527;1251;109354;-79
2024/03/12 00:23:56;;;;;;;19.30;15.90;;;;;;;5.49;87.97;99636.24;103345;1254;138603;-79
2024/03/12 00:26:22;;;;;;;18.40;15.30;;;;;;;5.49;88.80;99639.34;103539;1253;109757;-79
2024/03/12 00:28:49;;;;;;;20.40;16.30;;;;;;;5.46;88.67;99634.58;103423;1254;108016;-79
2024/03/12 00:31:16;;;;;;;20.10;16.00;;;;;;;5.44;88.49;99636.52;103345;1254;140019;-79
2024/03/12 00:33:46;;;;;;;22.40;16.50;;;;;;;5.43;88.40;99633.77;103440;1252;106684;-79
2024/03/12 00:36:14;;;;;;;22.00;16.70;;;;;;;5.44;88.76;99637.55;103460;1254;138545;-82
2024/03/12 00:38:41;;;;;;;19.70;15.80;;;;;;;5.41;89.29;99631.40;103477;1254;110338;-80
2024/03/12 00:41:08;;;;;;;20.40;16.30;;;;;;;5.40;89.56;99632.99;103510;1254;107589;-80
2024/03/12 00:43:35;;;;;;;20.20;16.60;;;;;;;5.36;89.99;99633.22;103398;1251;138485;-80
2024/03/12 00:46:04;;;;;;;20.40;16.20;;;;;;;5.34;89.83;99630.49;103572;1254;108878;-80
2024/03/12 00:48:31;;;;;;;19.50;15.60;;;;;;;5.33;90.13;99629.31;103394;1254;139396;-80
2024/03/12 00:50:58;;;;;;;19.20;16.10;;;;;;;5.33;89.71;99628.98;103499;1254;109986;-80
2024/03/12 00:53:25;;;;;;;20.90;15.70;;;;;;;5.32;89.82;99625.54;103453;1253;108422;-80
2024/03/12 00:55:53;;;;;;;19.80;15.30;;;;;;;5.34;89.68;99627.58;103386;1254;138419;-80
2024/03/12 00:58:21;;;;;;;19.60;15.60;;;;;;;5.34;89.72;99622.41;104071;1251;105811;-80
2024/03/12 01:00:49;;;;;;;21.70;16.10;;;;;;;5.33;89.59;99618.98;103390;1254;138441;-80
2024/03/12 01:03:17;;;;;;;18.40;14.70;;;;;;;5.36;89.74;99623.73;103503;1254;110982;-79
2024/03/12 01:05:44;;;;;;;20.40;15.90;;;;;;;5.35;90.54;99627.89;103373;1251;137335;-80
2024/03/12 01:08:12;;;;;;;21.50;16.00;;;;;;;5.33;90.27;99625.52;103448;1253;96817;-79
2024/03/12 01:10:40;;;;;;;20.10;16.20;;;;;;;5.32;90.01;99621.93;103504;1251;106490;-80
2024/03/12 01:13:09;;;;;;;23.70;17.10;;;;;;;5.31;90.47;99621.79;104064;1254;138322;-79
2024/03/12 01:15:37;;;;;;;21.20;16.70;;;;;;;5.29;89.98;99618.55;103550;1251;109478;-79
2024/03/12 01:18:05;;;;;;;22.80;16.90;;;;;;;5.31;90.04;99624.54;103284;1254;138531;-77
2024/03/12 01:20:34;;;;;;;23.10;17.00;;;;;;;5.30;90.56;99620.42;103611;1254;96456;-78
2024/03/12 01:23:04;;;;;;;23.00;17.10;;;;;;;5.30;90.34;99623.36;103432;1253;107650;-78
2024/03/12 01:25:34;;;;;;;25.10;17.30;;;;;;;5.28;90.65;99625.30;103751;1254;138271;-79
2024/03/12 01:28:02;;;;;;;21.40;16.90;;;;;;;5.27;90.64;99623.60;103469;1254;110694;-79
2024/03/12 01:30:30;;;;;;;24.10;17.00;;;;;;;5.24;90.84;99620.20;103325;1253;138172;-79
2024/03/12 01:32:59;;;;;;;24.20;18.20;;;;;;;5.25;90.97;99617.27;103433;1254;96321;-78
2024/03/12 01:35:26;;;;;;;21.80;17.10;;;;;;;5.25;90.98;99618.11;103460;1254;108286;-78
2024/03/12 01:37:53;;;;;;;22.70;17.80;;;;;;;5.25;90.62;99616.05;103288;1253;138574;-78
2024/03/12 01:40:23;;;;;;;24.00;18.90;;;;;;;5.25;90.88;99617.43;103490;1254;109715;-79
2024/03/12 01:42:51;;;;;;;27.70;19.00;;;;;;;5.25;91.01;99618.65;103339;1254;139180;-79
2024/03/12 01:45:21;;;;;;;24.70;18.00;;;;;;;5.22;91.57;99619.56;103559;1254;97732;-78
2024/03/12 01:47:50;;;;;;;25.70;18.50;;;;;;;5.22;90.92;99620.94;103321;1251;138889;-79
2024/03/12 01:50:19;;;;;;;25.20;18.70;;;;;;;5.23;91.36;99623.34;103775;1254;96447;-78
2024/03/12 01:52:47;;;;;;;25.10;18.80;;;;;;;5.22;91.40;99623.02;103433;1253;110389;-78
2024/03/12 01:55:14;;;;;;;25.90;19.50;;;;;;;5.23;91.05;99619.56;103324;1254;138967;-78
2024/03/12 01:57:46;;;;;;;26.50;19.60;;;;;;;5.22;91.76;99623.70;103498;1254;96309;-78
2024/03/12 02:00:15;;;;;;;25.90;18.70;;;;;;;5.21;91.45;99619.25;104643;1252;138293;-78
2024/03/12 02:02:43;;;;;;;27.60;19.70;;;;;;;5.21;91.58;99619.75;103519;1254;96483;-78
2024/03/12 02:05:11;;;;;;;25.30;18.90;;;;;;;5.17;91.90;99612.58;103620;1254;109813;-78
2024/03/12 02:07:38;;;;;;;26.80;19.70;;;;;;;5.19;91.79;99619.09;103658;1257;139635;-78
2024/03/12 02:10:06;;;;;;;26.60;19.50;;;;;;;5.19;91.72;99619.95;103457;1254;96965;-76
2024/03/12 02:12:40;;;;;;;29.50;19.90;;;;;;;5.19;92.23;99613.06;103729;1254;137982;-77
2024/03/12 02:15:10;;;;;;;26.80;20.10;;;;;;;5.17;92.26;99616.02;103374;1254;96462;-76
2024/03/12 02:17:39;;;;;;;28.80;20.00;;;;;;;5.16;92.80;99618.45;103547;1254;109591;-75
2024/03/12 02:20:09;;;;;;;27.20;19.60;;;;;;;5.15;92.49;99611.58;103316;1254;107311;-76
2024/03/12 02:22:36;;;;;;;27.10;20.10;;;;;;;5.15;92.10;99610.04;103528;1251;96461;-77
2024/03/12 02:25:03;;;;;;;29.10;20.80;;;;;;;5.15;92.11;99609.36;104028;1254;138835;-77
2024/03/12 02:27:31;;;;;;;30.10;20.80;;;;;;;5.19;92.22;99613.75;104783;1253;94352;-77
2024/03/12 02:29:57;;;;;;;28.30;21.20;;;;;;;5.19;92.43;99612.20;103256;1254;139444;-77
2024/03/12 02:32:25;;;;;;;31.60;21.30;;;;;;;5.19;92.40;99611.02;103369;1252;107179;-77
2024/03/12 02:34:52;;;;;;;32.10;19.70;;;;;;;5.19;92.74;99611.34;103427;1254;98119;-76
2024/03/12 02:37:21;;;;;;;28.60;20.40;;;;;;;5.18;92.27;99612.91;103649;1252;138406;-77
2024/03/12 02:39:48;;;;;;;31.80;21.90;;;;;;;5.18;93.26;99618.25;103459;1253;96417;-76
2024/03/12 02:42:15;;;;;;;34.40;21.60;;;;;;;5.16;93.34;99615.19;103332;1251;139298;-76
2024/03/12 02:44:42;;;;;;;32.30;20.80;;;;;;;5.14;93.23;99614.17;103352;1256;108537;-77
2024/03/12 02:47:09;;;;;;;33.00;21.80;;;;;;;5.15;93.03;99609.70;103380;1256;96933;-77
2024/03/12 02:49:36;;;;;;;31.50;21.90;;;;;;;5.15;92.92;99609.16;101834;1254;1003436;-76
2024/03/12 02:52:04;;;;;;;31.90;22.00;;;;;;;5.15;93.28;99607.27;102628;1253;1003036;-77
2024/03/12 02:54:31;;;;;;;33.40;22.40;;;;;;;5.15;92.90;99604.69;104723;1252;139077;-78
2024/03/12 02:56:58;;;;;;;36.00;22.90;;;;;;;5.16;93.31;99602.27;104750;1252;107698;-77
2024/03/12 02:59:27;;;;;;;33.70;23.40;;;;;;;5.17;93.18;99598.80;104323;1254;95351;-77
2024/03/12 03:01:55;;;;;;;32.00;22.70;;;;;;;5.17;93.27;99597.08;103716;1253;138000;-77
2024/03/12 03:04:22;;;;;;;35.40;23.10;;;;;;;5.15;93.73;99593.31;104650;1253;94520;-77
2024/03/12 03:06:51;;;;;;;33.60;22.00;;;;;;;5.17;93.43;99592.77;103685;1254;139237;-76
2024/03/12 03:09:18;;;;;;;32.80;22.70;;;;;;;5.18;93.44;99593.44;103355;1256;108624;-76
2024/03/12 03:11:46;;;;;;;35.50;23.20;;;;;;;5.20;93.36;99594.26;103318;1253;138325;-72
2024/03/12 03:14:14;;;;;;;35.80;23.50;;;;;;;5.18;93.80;99586.54;103511;1250;109233;-76
2024/03/12 03:16:41;;;;;;;35.10;23.20;;;;;;;5.19;93.47;99594.27;103488;1251;96449;-76
2024/03/12 03:19:08;;;;;;;36.20;23.40;;;;;;;5.19;93.62;99588.76;103347;1253;138713;-74
2024/03/12 03:21:36;;;;;;;38.90;24.50;;;;;;;5.18;93.62;99592.73;103333;1252;107513;-76
2024/03/12 03:24:04;;;;;;;35.90;23.40;;;;;;;5.19;93.75;99596.17;103265;1254;138545;-76
2024/03/12 03:26:31;;;;;;;35.90;24.20;;;;;;;5.18;93.78;99599.98;102650;1254;1002760;-75
2024/03/12 03:28:58;;;;;;;38.30;23.40;;;;;;;5.17;93.64;99596.21;103373;1254;96337;-75
2024/03/12 03:31:26;;;;;;;38.50;23.90;;;;;;;5.20;93.41;99600.81;103319;1256;138144;-77
2024/03/12 03:33:53;;;;;;;37.60;24.40;;;;;;;5.22;93.88;99597.35;103408;1254;108209;-78
2024/03/12 03:36:21;;;;;;;39.20;24.70;;;;;;;5.21;94.00;99592.19;103367;1254;138320;-77
2024/03/12 03:38:48;;;;;;;36.50;23.70;;;;;;;5.21;94.28;99592.00;103945;1251;107168;-77
2024/03/12 03:41:15;;;;;;;37.70;24.50;;;;;;;5.20;93.85;99591.15;103492;1254;96442;-77
2024/03/12 03:43:42;;;;;;;39.00;24.30;;;;;;;5.19;93.79;99588.42;103325;1254;138369;-77
2024/03/12 03:46:09;;;;;;;38.80;24.60;;;;;;;5.21;94.69;99595.96;103470;1254;107659;-77
2024/03/12 03:48:36;;;;;;;35.40;23.00;;;;;;;5.21;94.28;99594.77;103455;1254;138131;-77
2024/03/12 03:51:05;;;;;;;39.70;24.30;;;;;;;5.20;94.46;99593.39;103430;1254;108017;-76
2024/03/12 03:53:32;;;;;;;37.50;23.80;;;;;;;5.19;94.20;99588.07;103958;1253;96460;-77
2024/03/12 03:55:58;;;;;;;41.90;24.60;;;;;;;5.22;94.32;99591.82;103298;1253;138230;-76
2024/03/12 03:58:25;;;;;;;43.00;25.60;;;;;;;5.24;94.49;99590.73;102033;1251;1003100;-77
2024/03/12 04:00:52;;;;;;;36.70;24.10;;;;;;;5.22;94.50;99587.34;103257;1254;138477;-76
2024/03/12 04:03:20;;;;;;;39.50;24.80;;;;;;;5.22;94.64;99582.69;103441;1253;107174;-77
2024/03/12 04:05:48;;;;;;;41.80;25.10;;;;;;;5.22;94.49;99584.24;103423;1253;139042;-77
2024/03/12 04:08:16;;;;;;;41.00;24.60;;;;;;;5.22;94.04;99581.83;103614;1250;110046;-77
2024/03/12 04:10:43;;;;;;;40.80;25.30;;;;;;;5.22;94.91;99580.44;103441;1256;107162;-76
2024/03/12 04:13:10;;;;;;;40.00;24.30;;;;;;;5.22;94.30;99577.69;103543;1256;138276;-77
2024/03/12 04:15:37;;;;;;;38.70;25.00;;;;;;;5.23;94.77;99579.73;103469;1251;108460;-75
2024/03/12 04:18:05;;;;;;;40.40;24.40;;;;;;;5.22;95.08;99579.58;103353;1253;140107;-77
2024/03/12 04:20:32;;;;;;;42.90;25.50;;;;;;;5.21;95.20;99581.67;104773;1251;110014;-78
2024/03/12 04:23:01;;;;;;;40.40;25.50;;;;;;;5.18;95.52;99581.71;103579;1254;108123;-77
2024/03/12 04:25:28;;;;;;;39.80;26.00;;;;;;;5.17;95.68;99584.84;103876;1253;138137;-77
2024/03/12 04:27:55;;;;;;;40.70;25.00;;;;;;;5.14;95.84;99581.98;103743;1254;107258;-76
2024/03/12 04:30:22;;;;;;;42.80;26.00;;;;;;;5.13;95.70;99578.55;103262;1251;139478;-75
2024/03/12 04:32:49;;;;;;;39.10;25.20;;;;;;;5.14;95.91;99582.66;103521;1253;109797;-78
2024/03/12 04:35:16;;;;;;;43.00;25.90;;;;;;;5.15;95.76;99581.25;103445;1251;108194;-75
2024/03/12 04:37:44;;;;;;;44.00;27.00;;;;;;;5.15;96.52;99578.86;103321;1253;138537;-75
2024/03/12 04:40:12;;;;;;;46.10;26.40;;;;;;;5.13;96.52;99583.89;103838;1254;108055;-74
2024/03/12 04:42:39;;;;;;;48.10;26.70;;;;;;;5.12;96.76;99587.37;104489;1252;138403;-74
2024/03/12 04:45:09;;;;;;;44.40;26.80;;;;;;;5.11;96.61;99586.17;103442;1253;109732;-75
2024/03/12 04:47:37;;;;;;;46.00;27.90;;;;;;;5.10;96.25;99589.64;103509;1256;106583;-75
2024/03/12 04:50:07;;;;;;;48.50;27.70;;;;;;;5.10;97.33;99590.84;103830;1253;97065;-75
2024/03/12 04:52:35;;;;;;;43.70;26.20;;;;;;;5.09;97.57;99592.25;103388;1250;107579;-75
2024/03/12 04:55:04;;;;;;;47.60;26.70;;;;;;;5.06;98.03;99597.83;103294;1250;138197;-75
2024/03/12 04:57:32;;;;;;;45.10;26.60;;;;;;;5.05;97.29;99591.65;104757;1252;109499;-76
2024/03/12 05:00:00;;;;;;;46.50;26.60;;;;;;;5.06;96.90;99593.19;104628;1253;139110;-76
2024/03/12 05:02:26;;;;;;;41.80;25.60;;;;;;;5.07;97.38;99595.73;104771;1252;96053;-75
2024/03/12 05:04:53;;;;;;;43.80;27.00;;;;;;;5.08;97.80;99595.55;104349;1253;107619;-76
2024/03/12 05:07:20;;;;;;;46.50;27.60;;;;;;;5.09;97.17;99597.95;103384;1255;138855;-75
2024/03/12 05:09:47;;;;;;;49.70;27.90;;;;;;;5.11;97.52;99600.64;103455;1252;110781;-76
2024/03/12 05:12:14;;;;;;;46.40;27.20;;;;;;;5.12;97.22;99597.17;103239;1254;138818;-75
2024/03/12 05:14:41;;;;;;;44.90;27.30;;;;;;;5.13;96.84;99600.43;103351;1251;98425;-75
2024/03/12 05:17:07;;;;;;;46.90;26.80;;;;;;;5.15;96.60;99602.80;103423;1253;108007;-75
2024/03/12 05:19:34;;;;;;;45.10;27.00;;;;;;;5.17;96.41;99605.16;103287;1253;139420;-76
2024/03/12 05:22:02;;;;;;;48.80;28.80;;;;;;;5.20;96.93;99605.64;103444;1250;112661;-75
2024/03/12 05:24:31;;;;;;;45.10;27.60;;;;;;;5.19;96.40;99605.46;103383;1254;138635;-75
2024/03/12 05:26:59;;;;;;;46.80;26.90;;;;;;;5.22;96.35;99602.85;103571;1250;97799;-75
2024/03/12 05:29:36;;;;;;;48.00;27.40;;;;;;;5.23;96.41;99607.65;103497;1250;107330;-75
2024/03/12 05:32:17;;;;;;;44.40;27.00;;;;;;;5.23;96.18;99609.55;103390;1253;138499;-76
2024/03/12 05:34:44;;;;;;;47.20;28.20;;;;;;;5.25;95.78;99610.70;102696;1250;1003462;-75
2024/03/12 05:37:28;;;;;;;45.70;27.60;;;;;;;5.27;96.00;99608.94;104045;1253;138817;-75
2024/03/12 05:40:11;;;;;;;47.00;27.40;;;;;;;5.28;96.09;99613.40;104449;1253;95977;-75
2024/03/12 05:48:09;;;;;;;46.70;28.00;;;;;;;5.26;96.40;99618.27;103367;1251;138455;-74
2024/03/12 05:50:36;;;;;;;44.90;28.80;;;;;;;5.25;96.63;99623.29;103573;1253;107177;-74
2024/03/12 05:53:04;;;;;;;50.50;29.20;;;;;;;5.23;96.51;99617.64;103731;1250;97768;-75
2024/03/12 05:55:31;;;;;;;49.90;29.70;;;;;;;5.22;96.81;99619.73;103339;1252;139240;-73
2024/03/12 05:57:58;;;;;;;45.80;29.60;;;;;;;5.20;97.20;99619.59;103398;1253;97816;-72
2024/03/12 06:00:25;;;;;;;54.70;30.20;;;;;;;5.16;97.26;99616.04;103264;1254;138556;-78
2024/03/12 06:02:53;;;;;;;51.30;30.20;;;;;;;5.15;97.23;99615.39;103453;1252;108105;-77
2024/03/12 06:05:20;;;;;;;53.30;30.80;;;;;;;5.14;97.38;99615.08;103464;1254;97686;-77
2024/03/12 06:07:48;;;;;;;54.50;30.80;;;;;;;5.12;97.00;99616.30;103298;1250;139394;-77
2024/03/12 06:10:16;;;;;;;57.80;31.60;;;;;;;5.12;97.78;99619.92;103439;1250;97813;-79
2024/03/12 06:12:43;;;;;;;54.30;29.40;;;;;;;5.10;97.26;99617.20;104567;1250;139214;-78
2024/03/12 06:15:11;;;;;;;51.20;29.50;;;;;;;5.11;97.63;99622.02;103443;1254;108323;-77
2024/03/12 06:17:38;;;;;;;51.90;30.30;;;;;;;5.08;97.96;99619.15;103468;1250;97810;-74
2024/03/12 06:20:06;;;;;;;54.70;30.80;;;;;;;5.09;97.39;99619.47;103299;1251;138312;-75
2024/03/12 06:22:37;;;;;;;54.00;32.10;;;;;;;5.12;97.60;99630.27;104752;1253;95671;-75
2024/03/12 06:25:04;;;;;;;57.60;32.10;;;;;;;5.11;97.51;99625.13;104621;1253;138742;-75
2024/03/12 06:27:32;;;;;;;55.60;30.90;;;;;;;5.12;98.03;99631.64;104706;1251;105857;-79
2024/03/12 06:29:59;;;;;;;59.80;31.80;;;;;;;5.12;97.74;99627.68;104630;1251;140164;-81
2024/03/12 06:32:31;;;;;;;60.20;32.50;;;;;;;5.12;98.26;99630.95;104738;1253;107474;-81
2024/03/12 06:34:58;;;;;;;56.50;32.50;;;;;;;5.12;97.91;99638.03;104773;1251;96051;-77
2024/03/12 06:37:26;;;;;;;56.20;32.10;;;;;;;5.14;97.86;99638.16;104618;1253;139431;-80
2024/03/12 06:39:54;;;;;;;57.30;31.20;;;;;;;5.15;97.81;99642.09;104323;1253;106528;-80
2024/03/12 06:42:25;;;;;;;57.30;31.20;;;;;;;5.17;97.63;99643.44;103291;1254;138623;-78
2024/03/12 06:44:52;;;;;;;61.60;34.10;;;;;;;5.20;97.67;99647.86;103487;1252;107739;-76
2024/03/12 06:47:20;;;;;;;58.10;32.30;;;;;;;5.20;97.38;99648.21;103327;1254;97746;-76
2024/03/12 06:49:47;;;;;;;57.30;32.10;;;;;;;5.24;97.38;99652.44;104618;1251;139339;-77
2024/03/12 06:52:15;;;;;;;58.80;31.70;;;;;;;5.26;97.70;99650.67;103579;1253;107626;-76
2024/03/12 06:54:44;;;;;;;59.10;33.30;;;;;;;5.25;97.94;99652.77;103285;1254;138498;-77
2024/03/12 06:57:12;;;;;;;56.70;32.00;;;;;;;5.24;97.28;99653.14;103390;1254;107602;-78
2024/03/12 06:59:40;;;;;;;53.50;32.10;;;;;;;5.25;97.42;99650.52;103324;1253;97807;-78
2024/03/12 07:02:09;;;;;;;55.80;32.90;;;;;;;5.27;97.22;99651.68;103445;1250;110492;-79
2024/03/12 07:04:43;;;;;;;54.70;31.70;;;;;;;5.29;97.02;99650.60;103449;1251;107521;-77
2024/03/12 07:07:11;;;;;;;53.50;32.90;;;;;;;5.33;96.98;99651.20;103305;1253;138936;-77
2024/03/12 07:09:41;;;;;;;58.40;32.20;;;;;;;5.37;97.33;99657.14;103328;1254;108676;-76
2024/03/12 07:12:10;;;;;;;58.50;31.60;;;;;;;5.37;97.03;99658.02;103338;1253;138548;-77
2024/03/12 07:14:41;;;;;;;65.40;33.10;;;;;;;5.37;97.02;99656.48;104808;1250;111099;-77
2024/03/12 07:17:09;;;;;;;56.70;32.00;;;;;;;5.38;96.96;99659.89;103769;1252;107647;-77
2024/03/12 07:19:38;;;;;;;55.20;31.60;;;;;;;5.40;96.88;99658.34;103318;1253;138329;-78
2024/03/12 07:22:07;;;;;;;57.90;33.70;;;;;;;5.42;97.00;99660.35;103329;1254;108824;-78
2024/03/12 07:24:35;;;;;;;60.00;33.00;;;;;;;5.44;96.60;99659.26;104676;1251;138452;-77
2024/03/12 07:27:03;;;;;;;56.80;31.70;;;;;;;5.51;96.54;99664.98;104742;1253;111409;-78
2024/03/12 07:29:30;;;;;;;52.40;32.20;;;;;;;5.53;96.55;99663.38;104411;1253;106663;-77
2024/03/12 07:31:57;;;;;;;58.10;32.70;;;;;;;5.55;96.60;99667.84;103330;1253;138435;-78
2024/03/12 07:34:25;;;;;;;54.20;32.70;;;;;;;5.55;95.99;99668.86;103413;1253;107726;-76
2024/03/12 07:36:52;;;;;;;55.80;32.60;;;;;;;5.56;96.13;99670.39;103376;1254;138446;-76
2024/03/12 07:39:26;;;;;;;54.00;31.70;;;;;;;5.58;95.85;99672.29;103315;1252;111730;-77
2024/03/12 07:41:55;;;;;;;59.30;33.00;;;;;;;5.57;96.01;99672.11;103224;1250;138588;-75
2024/03/12 07:44:22;;;;;;;56.10;32.70;;;;;;;5.58;95.87;99672.10;104763;1250;95981;-78
2024/03/12 07:46:49;;;;;;;55.00;32.10;;;;;;;5.58;96.12;99672.09;103642;1254;107737;-80
2024/03/12 07:49:20;;;;;;;55.10;32.90;;;;;;;5.59;95.98;99673.97;103399;1253;139696;-85
2024/03/12 07:51:49;;;;;;;56.90;31.70;;;;;;;5.58;96.11;99671.57;103543;1251;109989;-83
2024/03/12 07:54:18;;;;;;;57.10;31.30;;;;;;;5.55;96.10;99669.38;103348;1251;138513;-85
2024/03/12 07:56:47;;;;;;;55.90;33.00;;;;;;;5.55;95.93;99670.07;103517;1251;98324;-83
2024/03/12 07:59:16;;;;;;;55.60;30.80;;;;;;;5.57;96.00;99669.52;103378;1253;108001;-84
2024/03/12 08:01:44;;;;;;;55.60;32.00;;;;;;;5.57;96.18;99664.17;103410;1254;137278;-80
2024/03/12 08:04:12;;;;;;;54.90;30.70;;;;;;;5.60;95.83;99668.42;104781;1253;110191;-79
2024/03/12 08:06:39;;;;;;;55.10;30.80;;;;;;;5.64;95.82;99667.99;103588;1253;139588;-83
2024/03/12 08:09:07;;;;;;;52.90;31.30;;;;;;;5.69;95.54;99663.56;103482;1250;97787;-77
2024/03/12 08:11:34;;;;;;;57.40;31.60;;;;;;;5.74;95.58;99666.23;103445;1253;108107;-79
2024/03/12 08:14:01;;;;;;;50.60;31.80;;;;;;;5.74;95.30;99666.39;103211;1253;138894;-85
2024/03/12 08:16:29;;;;;;;59.20;30.60;;;;;;;5.74;95.42;99665.17;103415;1251;111908;-82
2024/03/12 08:18:58;;;;;;;54.60;30.70;;;;;;;5.73;95.25;99664.84;103311;1253;138406;-83
2024/03/12 08:21:27;;;;;;;52.00;30.20;;;;;;;5.74;95.16;99665.35;103496;1253;97800;-81
2024/03/12 08:23:54;;;;;;;49.20;29.60;;;;;;;5.77;95.11;99667.02;104299;1250;139535;-83
2024/03/12 08:26:23;;;;;;;50.60;29.80;;;;;;;5.81;94.90;99667.61;103511;1254;97750;-82
2024/03/12 08:28:51;;;;;;;51.10;30.20;;;;;;;5.83;94.87;99667.75;103457;1253;111979;-84
2024/03/12 08:31:19;;;;;;;53.60;30.50;;;;;;;5.84;94.58;99671.87;103523;1250;138374;-80
2024/03/12 08:34:02;;;;;;;55.60;31.20;;;;;;;5.87;94.53;99674.55;103435;1254;99505;-82
2024/03/12 08:36:30;;;;;;;49.50;29.30;;;;;;;5.87;94.84;99679.39;103506;1253;138280;-79
2024/03/12 08:38:58;;;;;;;57.90;31.80;;;;;;;5.85;94.36;99677.52;103513;1253;97812;-82
2024/03/12 08:41:25;;;;;;;60.90;31.50;;;;;;;5.87;94.39;99678.85;103424;1250;110963;-79
2024/03/12 08:43:52;;;;;;;59.10;31.00;;;;;;;5.88;94.28;99679.19;103278;1250;138573;-79
2024/03/12 08:46:19;;;;;;;52.70;30.00;;;;;;;5.90;94.30;99682.45;103293;1254;98322;-80
2024/03/12 08:48:47;;;;;;;54.80;31.00;;;;;;;5.91;94.31;99677.92;103258;1250;138452;-81
2024/03/12 08:51:14;;;;;;;55.80;30.20;;;;;;;5.93;94.18;99678.60;103435;1253;97881;-78
2024/03/12 08:53:41;;;;;;;51.90;30.30;;;;;;;5.93;93.96;99679.47;103435;1256;112253;-79
2024/03/12 08:56:09;;;;;;;51.60;30.00;;;;;;;5.93;94.12;99679.30;103503;1256;107507;-78
2024/03/12 08:58:36;;;;;;;51.40;30.40;;;;;;;5.92;94.10;99675.85;101924;1250;1015897;-80
2024/03/12 09:01:04;;;;;;;54.20;30.60;;;;;;;5.91;93.66;99682.60;103978;1254;138640;-78
2024/03/12 09:03:32;;;;;;;49.50;29.20;;;;;;;5.90;93.83;99677.61;104685;1251;96306;-81
2024/03/12 09:05:59;;;;;;;54.30;29.70;;;;;;;5.92;93.70;99683.79;104180;1253;138414;-81
2024/03/12 09:08:26;;;;;;;52.40;29.30;;;;;;;5.96;93.80;99682.50;103381;1256;107260;-81
2024/03/12 09:10:53;;;;;;;52.00;30.00;;;;;;;5.99;93.49;99681.56;103487;1253;97835;-80
2024/03/12 09:13:20;;;;;;;50.00;29.50;;;;;;;6.02;93.59;99683.04;103560;1254;138306;-80
2024/03/12 09:15:50;;;;;;;50.10;29.70;;;;;;;6.02;93.57;99680.98;103526;1256;97870;-79
2024/03/12 09:18:19;;;;;;;47.70;29.10;;;;;;;6.07;93.30;99684.66;103637;1253;139220;-75
2024/03/12 09:20:52;;;;;;;56.20;29.90;;;;;;;6.10;93.30;99682.17;103881;1254;107504;-76
2024/03/12 09:23:20;;;;;;;52.80;28.80;;;;;;;6.15;92.97;99685.88;103427;1250;97745;-76
2024/03/12 09:25:47;;;;;;;49.60;29.40;;;;;;;6.20;92.87;99684.89;103380;1256;138206;-75
2024/03/12 09:28:16;;;;;;;47.10;28.10;;;;;;;6.24;92.63;99684.26;103471;1253;97821;-74
2024/03/12 09:30:45;;;;;;;52.80;28.80;;;;;;;6.30;92.26;99680.68;103462;1250;139251;-84
2024/03/12 09:33:13;;;;;;;50.60;28.70;;;;;;;6.35;92.17;99683.14;103616;1253;106227;-80
2024/03/12 09:35:40;;;;;;;50.00;27.70;;;;;;;6.40;91.89;99686.99;103623;1251;98145;-81
2024/03/12 09:38:09;;;;;;;44.60;26.40;;;;;;;6.41;91.36;99687.30;104006;1253;139923;-80
2024/03/12 09:40:38;;;;;;;46.30;26.70;;;;;;;6.43;91.36;99688.11;103666;1254;97671;-83
2024/03/12 09:43:08;;;;;;;48.10;27.40;;;;;;;6.44;91.05;99688.12;103564;1252;138302;-83
2024/03/12 09:45:35;;;;;;;48.90;27.60;;;;;;;6.43;90.93;99691.59;103917;1250;107279;-80
2024/03/12 09:48:02;;;;;;;48.20;28.30;;;;;;;6.43;90.96;99688.29;104349;1250;139455;-85
2024/03/12 09:50:31;;;;;;;53.10;33.70;;;;;;;6.46;91.02;99692.89;103575;1254;108499;-82
2024/03/12 09:52:59;;;;;;;43.70;30.40;;;;;;;6.48;90.74;99697.52;103489;1252;97813;-82
2024/03/12 09:55:26;;;;;;;56.70;31.90;;;;;;;6.48;90.47;99699.25;103563;1250;138295;-82
2024/03/12 09:57:54;;;;;;;51.00;30.20;;;;;;;6.50;90.51;99699.36;103592;1250;107082;-81
2024/03/12 10:00:24;;;;;;;45.40;29.60;;;;;;;6.54;90.44;99701.16;103585;1256;140294;-82
2024/03/12 10:02:52;;;;;;;41.50;26.10;;;;;;;6.58;90.37;99700.02;103536;1253;107882;-80
2024/03/12 10:05:22;;;;;;;45.20;26.80;;;;;;;6.58;90.05;99701.23;103416;1256;97918;-80
2024/03/12 10:08:15;;;;;;;45.90;25.40;;;;;;;6.58;89.84;99698.11;104608;1250;139308;-80
2024/03/12 10:10:43;;;;;;;42.90;26.60;;;;;;;6.60;89.69;99700.14;103728;1251;107832;-76
2024/03/12 10:13:14;;;;;;;46.60;25.70;;;;;;;6.63;89.73;99703.52;103389;1252;139026;-77
2024/03/12 10:15:50;;;;;;;41.90;24.50;;;;;;;6.66;89.39;99707.79;103382;1251;108163;-79
2024/03/12 10:18:18;;;;;;;43.00;25.20;;;;;;;6.68;89.34;99701.52;104676;1250;139062;-79
2024/03/12 10:20:49;;;;;;;44.80;26.80;;;;;;;6.71;89.22;99703.85;104472;1250;112584;-78
2024/03/12 10:23:18;;;;;;;45.00;27.70;;;;;;;6.74;89.09;99701.87;104494;1250;108591;-78
2024/03/12 10:25:45;;;;;;;42.70;26.80;;;;;;;6.75;88.90;99698.91;104301;1250;138465;-78
2024/03/12 10:28:18;;;;;;;39.90;26.10;;;;;;;6.77;88.83;99696.79;104553;1252;106550;-78
2024/03/12 10:30:46;;;;;;;60.70;26.30;;;;;;;6.80;88.79;99695.84;103603;1253;138618;-78
2024/03/12 10:33:20;;;;;;;38.10;23.80;;;;;;;6.86;88.73;99696.56;104764;1250;110020;-77
2024/03/12 10:35:50;;;;;;;33.80;23.20;;;;;;;6.89;88.45;99698.03;103826;1251;138932;-68
2024/03/12 10:38:27;;;;;;;46.50;25.10;;;;;;;6.94;88.52;99693.41;104159;1250;97794;-78
2024/03/12 10:40:55;;;;;;;40.60;26.60;;;;;;;7.01;88.60;99690.27;104658;1252;107184;-78
2024/03/12 10:43:25;;;;;;;39.60;26.80;;;;;;;7.08;88.58;99691.67;103869;1254;139560;-78
2024/03/12 10:45:53;;;;;;;41.90;25.30;;;;;;;7.14;88.43;99693.40;103750;1250;110728;-78
2024/03/12 10:48:21;;;;;;;38.30;24.30;;;;;;;7.15;88.06;99693.70;103404;1252;138768;-77
2024/03/12 10:50:49;;;;;;;38.50;25.00;;;;;;;7.14;87.85;99690.27;104194;1250;97685;-78
2024/03/12 10:53:18;;;;;;;34.10;24.30;;;;;;;7.12;87.58;99690.50;103790;1250;107029;-77
2024/03/12 10:55:45;;;;;;;88.00;28.10;;;;;;;7.11;87.90;99691.06;103424;1250;138422;-77
2024/03/12 10:58:15;;;;;;;44.70;27.20;;;;;;;7.13;87.92;99693.23;103632;1250;111905;-77
2024/03/12 11:00:44;;;;;;;38.20;25.80;;;;;;;7.13;87.67;99692.89;104100;1250;139505;-77
2024/03/12 11:03:13;;;;;;;37.50;25.80;;;;;;;7.13;87.54;99693.40;104649;1254;97877;-78
2024/03/12 11:05:42;;;;;;;41.40;25.10;;;;;;;7.13;87.36;99691.00;104718;1251;107491;-77
2024/03/12 11:08:10;;;;;;;39.30;25.60;;;;;;;7.09;87.25;99690.59;103849;1253;97765;-75
2024/03/12 11:10:38;;;;;;;38.20;24.30;;;;;;;7.09;87.51;99691.13;104076;1255;113354;-75
2024/03/12 11:13:07;;;;;;;40.00;25.40;;;;;;;7.14;87.99;99689.57;104050;1253;138645;-77
2024/03/12 11:15:35;;;;;;;38.80;25.10;;;;;;;7.21;87.97;99691.48;104830;1250;96572;-78
2024/03/12 11:18:05;;;;;;;37.50;23.00;;;;;;;7.25;87.94;99687.90;103794;1250;138574;-76
2024/03/12 11:20:33;;;;;;;35.20;21.30;;;;;;;7.28;87.52;99688.51;103737;1253;97692;-78
2024/03/12 11:23:01;;;;;;;31.20;19.00;;;;;;;7.27;87.24;99691.30;103563;1250;111676;-79